Time;durP1;ratioP1;P1;durP2;ratioP2;P2;SDS_P1;SDS_P2;PMS_P1;PMS_P2;Temp;Humidity;BMP_temperature;BMP_pressure;BME280_temperature;BME280_humidity;BME280_pressure;Samples;Min_cycle;Max_cycle;Signal;HPM_P1;HPM_P2
2022/01/08 00:00:26;;;;;;;10.00;2.90;;;5.70;99.90;;;;;;5034115;28;20430;-65
2022/01/08 00:02:52;;;;;;;3.60;2.17;;;5.70;99.90;;;;;;5033924;28;20482;-65
2022/01/08 00:05:21;;;;;;;4.97;2.70;;;5.70;99.90;;;;;;5033762;28;20852;-65
2022/01/08 00:07:48;;;;;;;5.73;2.90;;;5.60;99.90;;;;;;5033919;28;20451;-65
2022/01/08 00:10:15;;;;;;;6.07;3.87;;;5.60;99.90;;;;;;5034454;28;20469;-65
2022/01/08 00:12:42;;;;;;;5.83;3.13;;;5.50;99.90;;;;;;5033787;28;20478;-65
2022/01/08 00:15:09;;;;;;;4.20;2.53;;;5.50;99.90;;;;;;5033720;28;20442;-65
2022/01/08 00:17:37;;;;;;;4.10;3.33;;;5.50;99.90;;;;;;5033346;28;20799;-65
2022/01/08 00:20:06;;;;;;;10.20;3.40;;;5.50;99.90;;;;;;5033414;28;20454;-65
2022/01/08 00:22:34;;;;;;;5.20;3.33;;;5.50;99.90;;;;;;5033653;28;20485;-66
2022/01/08 00:25:00;;;;;;;8.10;2.60;;;5.50;99.90;;;;;;5033603;28;20489;-66
2022/01/08 00:27:27;;;;;;;4.87;3.57;;;5.50;99.90;;;;;;5033778;28;20809;-66
2022/01/08 00:29:54;;;;;;;7.23;2.77;;;5.50;99.90;;;;;;5033621;28;20451;-66
2022/01/08 00:32:21;;;;;;;7.47;3.40;;;5.50;99.90;;;;;;5033226;28;20459;-65
2022/01/08 00:34:48;;;;;;;8.03;3.40;;;5.40;99.90;;;;;;5033188;28;20454;-65
2022/01/08 00:37:15;;;;;;;7.63;3.50;;;5.40;99.90;;;;;;5033487;28;20455;-65
2022/01/08 00:39:44;;;;;;;5.53;3.63;;;5.40;99.90;;;;;;5033526;28;20450;-65
2022/01/08 00:42:11;;;;;;;9.87;3.67;;;5.40;99.90;;;;;;5033030;28;20865;-65
2022/01/08 00:44:38;;;;;;;6.33;3.13;;;5.40;99.90;;;;;;5033438;28;20445;-65
2022/01/08 00:47:05;;;;;;;5.60;3.20;;;5.30;99.90;;;;;;5033095;28;20482;-65
2022/01/08 00:49:31;;;;;;;7.53;3.67;;;5.40;99.90;;;;;;5034775;28;20812;-66
2022/01/08 00:51:58;;;;;;;7.87;4.10;;;5.30;99.90;;;;;;5039679;28;20478;-65
2022/01/08 00:54:25;;;;;;;5.93;3.23;;;5.30;99.90;;;;;;5039976;28;20449;-66
2022/01/08 00:56:53;;;;;;;3.50;2.80;;;5.30;99.90;;;;;;5039524;28;20932;-65
2022/01/08 00:59:20;;;;;;;7.57;3.03;;;5.20;99.90;;;;;;5039586;28;20450;-65
2022/01/08 01:01:47;;;;;;;4.80;3.07;;;5.30;99.90;;;;;;5039805;28;20451;-65
2022/01/08 01:04:13;;;;;;;5.40;3.00;;;5.30;99.90;;;;;;5040102;28;20450;-65
2022/01/08 01:06:40;;;;;;;4.90;3.30;;;5.30;99.90;;;;;;5039848;28;20478;-65
2022/01/08 01:09:07;;;;;;;4.20;3.00;;;5.30;99.90;;;;;;5039765;28;20442;-65
2022/01/08 01:11:34;;;;;;;6.93;3.23;;;5.30;99.90;;;;;;5039931;28;20462;-65
2022/01/08 01:14:02;;;;;;;4.43;3.10;;;5.20;99.90;;;;;;5039489;28;20820;-65
2022/01/08 01:16:28;;;;;;;6.13;3.43;;;5.20;99.90;;;;;;5039775;28;20450;-65
2022/01/08 01:18:57;;;;;;;5.20;3.77;;;5.20;99.90;;;;;;5039323;28;20802;-65
2022/01/08 01:21:24;;;;;;;5.53;3.67;;;5.10;99.90;;;;;;5039707;28;20450;-66
2022/01/08 01:23:52;;;;;;;12.40;3.83;;;5.10;99.90;;;;;;5039257;28;20465;-65
2022/01/08 01:26:23;;;;;;;6.20;3.57;;;5.00;99.90;;;;;;5039493;28;20938;-65
2022/01/08 01:28:56;;;;;;;4.60;3.60;;;5.00;99.90;;;;;;5039707;28;20434;-65
2022/01/08 01:42:39;;;;;;;7.57;3.50;;;4.80;99.90;;;;;;5039425;28;20448;-65
2022/01/08 01:47:55;;;;;;;5.30;4.27;;;4.50;99.90;;;;;;5039796;28;20529;-65
2022/01/08 01:50:22;;;;;;;7.00;4.23;;;4.50;99.90;;;;;;5039446;28;20446;-65
2022/01/08 01:52:49;;;;;;;6.63;4.60;;;4.50;99.90;;;;;;5039259;28;20470;-65
2022/01/08 01:55:16;;;;;;;6.23;4.53;;;4.40;99.90;;;;;;5039493;28;20808;-65
2022/01/08 01:57:43;;;;;;;15.43;5.10;;;4.30;99.90;;;;;;5039260;28;20454;-65
2022/01/08 02:00:11;;;;;;;9.77;4.67;;;4.30;99.90;;;;;;5039360;28;20450;-65
2022/01/08 02:02:39;;;;;;;9.97;5.13;;;4.40;99.90;;;;;;5035410;28;20466;-65
2022/01/08 02:05:08;;;;;;;7.40;4.63;;;4.40;99.90;;;;;;5037022;28;20454;-65
2022/01/08 02:07:34;;;;;;;5.03;4.03;;;4.30;99.90;;;;;;5035823;28;20889;-65
2022/01/08 02:10:01;;;;;;;11.17;4.73;;;4.40;99.90;;;;;;5036111;28;20473;-65
2022/01/08 02:12:33;;;;;;;6.40;5.03;;;4.30;99.90;;;;;;5036054;28;20469;-65
2022/01/08 02:14:59;;;;;;;8.67;4.80;;;4.30;99.90;;;;;;5036112;28;20431;-65
2022/01/08 02:17:26;;;;;;;9.80;5.60;;;4.30;99.90;;;;;;5035957;28;20441;-65
2022/01/08 02:19:55;;;;;;;11.40;4.73;;;4.30;99.90;;;;;;5035950;28;20465;-65
2022/01/08 02:22:22;;;;;;;5.80;4.93;;;4.30;99.90;;;;;;5035731;28;20531;-65
2022/01/08 02:24:50;;;;;;;11.07;5.47;;;4.30;99.90;;;;;;5036246;28;20442;-65
2022/01/08 02:27:18;;;;;;;5.90;4.83;;;4.40;99.90;;;;;;5035855;28;20484;-65
2022/01/08 02:29:46;;;;;;;8.33;5.97;;;4.30;99.90;;;;;;5036409;28;20446;-65
2022/01/08 02:32:15;;;;;;;9.60;5.73;;;4.30;99.90;;;;;;5035453;28;20917;-65
2022/01/08 02:34:44;;;;;;;6.77;4.87;;;4.30;99.90;;;;;;5035874;28;20446;-65
2022/01/08 02:37:12;;;;;;;9.23;5.63;;;4.30;99.90;;;;;;5035948;28;20442;-65
2022/01/08 02:39:41;;;;;;;11.10;6.27;;;4.30;99.90;;;;;;5035788;28;20449;-64
2022/01/08 02:42:11;;;;;;;14.30;6.33;;;4.30;99.90;;;;;;5035395;28;20470;-64
2022/01/08 02:44:38;;;;;;;8.83;6.63;;;4.30;99.90;;;;;;5035594;28;20489;-64
2022/01/08 02:47:38;;;;;;;10.73;7.03;;;4.20;99.90;;;;;;5035327;28;20482;-64
2022/01/08 02:50:08;;;;;;;11.00;6.53;;;4.20;99.90;;;;;;5035593;28;20442;-65
2022/01/08 02:52:40;;;;;;;12.02;7.70;;;4.10;99.90;;;;;;5034457;28;20445;-64
2022/01/08 02:55:08;;;;;;;14.97;8.63;;;4.10;99.90;;;;;;5036032;28;20200;-64
2022/01/08 02:57:35;;;;;;;11.30;7.73;;;4.10;99.90;;;;;;5035060;28;20935;-64
2022/01/08 03:00:01;;;;;;;12.23;7.80;;;4.00;99.90;;;;;;5035348;28;20458;-64
2022/01/08 03:02:28;;;;;;;14.70;7.70;;;3.90;99.90;;;;;;5035204;28;20473;-65
2022/01/08 03:04:55;;;;;;;13.20;8.37;;;3.80;99.90;;;;;;5035184;28;20453;-65
2022/01/08 03:07:22;;;;;;;15.00;7.73;;;3.80;99.90;;;;;;5035069;28;20486;-64
2022/01/08 03:09:56;;;;;;;14.50;7.57;;;3.70;99.90;;;;;;5035225;28;20446;-64
2022/01/08 03:12:23;;;;;;;13.57;7.30;;;3.70;99.90;;;;;;5034962;28;20477;-66
2022/01/08 03:14:50;;;;;;;10.47;7.97;;;3.50;99.90;;;;;;5035203;28;20458;-65
2022/01/08 03:17:17;;;;;;;17.13;8.13;;;3.50;99.90;;;;;;5035096;28;20443;-65
2022/01/08 03:19:44;;;;;;;12.00;7.80;;;3.40;99.90;;;;;;5035097;28;20446;-65
2022/01/08 03:22:11;;;;;;;18.40;8.40;;;3.40;99.90;;;;;;5034691;28;20478;-65
2022/01/08 03:24:40;;;;;;;18.27;10.40;;;3.40;99.90;;;;;;5034651;28;20874;-65
2022/01/08 03:27:08;;;;;;;19.90;8.60;;;3.40;99.90;;;;;;5034441;28;20849;-65
2022/01/08 03:29:35;;;;;;;14.07;9.33;;;3.30;99.90;;;;;;5034700;28;20450;-64
2022/01/08 03:32:01;;;;;;;18.67;11.33;;;3.20;99.90;;;;;;5034681;28;20493;-65
2022/01/08 03:34:28;;;;;;;14.90;9.40;;;3.30;99.90;;;;;;5034685;28;20450;-65
2022/01/08 03:36:55;;;;;;;13.03;8.97;;;3.20;99.90;;;;;;5034520;28;20478;-65
2022/01/08 03:39:22;;;;;;;14.30;9.50;;;3.20;99.90;;;;;;5034431;28;20450;-65
2022/01/08 03:41:49;;;;;;;18.87;10.13;;;3.20;99.90;;;;;;5034072;28;20968;-65
2022/01/08 03:44:17;;;;;;;17.30;10.63;;;3.20;99.90;;;;;;5034443;28;20451;-65
2022/01/08 03:46:43;;;;;;;16.73;10.60;;;3.30;99.90;;;;;;5034307;28;20489;-65
2022/01/08 03:49:23;;;;;;;14.73;10.30;;;3.20;99.90;;;;;;5034259;28;20450;-65
2022/01/08 03:51:51;;;;;;;15.13;10.23;;;3.20;99.90;;;;;;5034222;28;20471;-65
2022/01/08 03:54:18;;;;;;;18.13;12.30;;;3.20;99.90;;;;;;5034635;28;20443;-65
2022/01/08 03:56:45;;;;;;;23.27;12.30;;;3.10;99.90;;;;;;5033874;28;20434;-64
2022/01/08 03:59:11;;;;;;;13.67;11.07;;;3.10;99.90;;;;;;5034317;28;20451;-64
2022/01/08 04:01:39;;;;;;;18.53;12.30;;;3.10;99.90;;;;;;5034057;28;20477;-65
2022/01/08 04:04:07;;;;;;;16.80;11.73;;;3.10;99.90;;;;;;5034073;28;20451;-64
2022/01/08 04:06:34;;;;;;;16.47;12.03;;;3.10;99.90;;;;;;5033914;28;20481;-64
2022/01/08 04:09:01;;;;;;;18.13;10.40;;;3.10;99.90;;;;;;5033991;28;20480;-64
2022/01/08 04:11:28;;;;;;;23.13;12.37;;;3.10;99.90;;;;;;5033914;28;20453;-65
2022/01/08 04:13:56;;;;;;;17.10;12.03;;;3.10;99.90;;;;;;5033968;28;20447;-65
2022/01/08 04:16:28;;;;;;;16.73;11.93;;;3.10;99.90;;;;;;5033632;28;20447;-65
2022/01/08 04:18:57;;;;;;;17.30;11.80;;;3.10;99.90;;;;;;5034252;28;20802;-64
2022/01/08 04:24:10;;;;;;;18.83;12.03;;;3.10;99.90;;;;;;5033187;28;20437;-64
2022/01/08 04:26:36;;;;;;;16.07;14.20;;;3.10;99.90;;;;;;5034362;28;20490;-64
2022/01/08 04:29:05;;;;;;;18.17;11.47;;;3.10;99.90;;;;;;5033587;28;20464;-64
2022/01/08 04:31:31;;;;;;;21.20;12.00;;;3.10;99.90;;;;;;5033506;28;20521;-65
2022/01/08 04:34:00;;;;;;;16.47;11.60;;;3.10;99.90;;;;;;5033642;28;20448;-64
2022/01/08 04:36:26;;;;;;;18.17;12.00;;;3.20;99.90;;;;;;5033574;28;20454;-64
2022/01/08 04:38:53;;;;;;;20.60;12.47;;;3.10;99.90;;;;;;5033484;28;20462;-64
2022/01/08 04:41:20;;;;;;;19.90;12.50;;;3.10;99.90;;;;;;5033555;28;20828;-65
2022/01/08 04:43:47;;;;;;;16.37;12.30;;;3.10;99.90;;;;;;5033463;28;20446;-65
2022/01/08 04:46:14;;;;;;;24.23;12.60;;;3.00;99.90;;;;;;5033254;28;20450;-64
2022/01/08 04:48:41;;;;;;;15.77;12.07;;;3.10;99.90;;;;;;5033260;28;20450;-64
2022/01/08 04:51:09;;;;;;;18.17;11.70;;;3.10;99.90;;;;;;5033221;28;20463;-64
2022/01/08 04:53:36;;;;;;;19.27;12.60;;;3.10;99.90;;;;;;5033057;28;20928;-64
2022/01/08 04:56:03;;;;;;;19.50;12.47;;;3.00;99.90;;;;;;5033337;28;20818;-64
2022/01/08 04:58:30;;;;;;;20.00;12.77;;;3.10;99.90;;;;;;5033599;28;20890;-64
2022/01/08 05:00:57;;;;;;;24.63;11.97;;;3.00;99.90;;;;;;5033342;28;20449;-64
2022/01/08 05:03:24;;;;;;;20.60;11.40;;;3.10;99.90;;;;;;5032949;28;20975;-64
2022/01/08 05:05:51;;;;;;;15.17;10.60;;;3.00;99.90;;;;;;5033285;28;20476;-64
2022/01/08 05:08:19;;;;;;;17.10;11.97;;;3.10;99.90;;;;;;5032951;28;20485;-64
2022/01/08 05:10:46;;;;;;;17.53;10.90;;;3.10;99.90;;;;;;5033942;28;20454;-64
2022/01/08 05:13:12;;;;;;;21.93;12.17;;;3.10;99.90;;;;;;5033142;28;20474;-64
2022/01/08 05:15:40;;;;;;;17.90;12.53;;;3.00;99.90;;;;;;5033382;28;20450;-64
2022/01/08 05:18:09;;;;;;;15.97;11.70;;;3.00;99.90;;;;;;5033167;28;20473;-64
2022/01/08 05:20:38;;;;;;;17.93;10.60;;;3.00;99.90;;;;;;5033143;28;20443;-64
2022/01/08 05:23:05;;;;;;;17.27;11.53;;;3.00;99.90;;;;;;5032820;28;20860;-64
2022/01/08 05:25:34;;;;;;;15.30;11.73;;;3.00;99.90;;;;;;5033387;28;20453;-64
2022/01/08 05:28:02;;;;;;;19.87;12.37;;;3.00;99.90;;;;;;5033026;28;20494;-64
2022/01/08 05:30:29;;;;;;;18.17;12.73;;;2.90;99.90;;;;;;5033078;28;20477;-64
2022/01/08 05:32:57;;;;;;;20.37;12.50;;;2.90;99.90;;;;;;5033100;28;20478;-64
2022/01/08 05:35:24;;;;;;;20.47;12.70;;;3.00;99.90;;;;;;5033182;28;20454;-64
2022/01/08 05:37:52;;;;;;;22.20;13.63;;;2.90;99.90;;;;;;5035650;28;20937;-65
2022/01/08 05:40:19;;;;;;;19.87;11.63;;;3.00;99.90;;;;;;5036780;28;21012;-64
2022/01/08 05:42:47;;;;;;;16.63;11.23;;;2.90;99.90;;;;;;5036726;28;20473;-64
2022/01/08 05:45:14;;;;;;;21.70;13.03;;;2.90;99.90;;;;;;5036802;28;20793;-64
2022/01/08 05:47:41;;;;;;;18.73;12.90;;;2.90;99.90;;;;;;5036529;28;20493;-64
2022/01/08 05:50:09;;;;;;;22.40;11.33;;;2.80;99.90;;;;;;5036329;28;20940;-64
2022/01/08 05:52:36;;;;;;;20.50;12.40;;;2.90;99.90;;;;;;5036511;28;20462;-65
2022/01/08 05:55:03;;;;;;;25.53;12.53;;;2.90;99.90;;;;;;5036490;28;20446;-64
2022/01/08 05:57:30;;;;;;;18.50;11.90;;;2.90;99.90;;;;;;5036376;28;20810;-64
2022/01/08 05:59:58;;;;;;;19.90;11.80;;;2.90;99.90;;;;;;5036526;28;20458;-64
2022/01/08 06:02:24;;;;;;;22.83;11.97;;;2.80;99.90;;;;;;5036505;28;20473;-64
2022/01/08 06:04:51;;;;;;;17.87;11.80;;;2.80;99.90;;;;;;5036184;28;20457;-64
2022/01/08 06:07:18;;;;;;;22.73;13.07;;;2.80;99.90;;;;;;5036114;28;20481;-64
2022/01/08 06:09:45;;;;;;;21.27;12.80;;;2.80;99.90;;;;;;5036099;28;20451;-65
2022/01/08 06:12:12;;;;;;;18.77;11.43;;;2.70;99.90;;;;;;5036130;28;20474;-64
2022/01/08 06:14:38;;;;;;;21.00;11.40;;;2.80;99.90;;;;;;5036017;28;20435;-64
2022/01/08 06:17:06;;;;;;;19.10;10.47;;;2.80;99.90;;;;;;5036141;28;20450;-64
2022/01/08 06:19:33;;;;;;;18.53;11.43;;;2.80;99.90;;;;;;5035533;28;20971;-64
2022/01/08 06:22:00;;;;;;;17.83;11.80;;;2.80;99.90;;;;;;5035839;28;20489;-64
2022/01/08 06:24:27;;;;;;;16.90;10.80;;;2.70;99.90;;;;;;5035872;28;20457;-64
2022/01/08 06:26:54;;;;;;;29.70;13.60;;;2.80;99.90;;;;;;5035911;28;20478;-64
2022/01/08 06:29:21;;;;;;;21.30;13.47;;;2.80;99.90;;;;;;5036751;28;20453;-64
2022/01/08 06:31:48;;;;;;;22.63;12.30;;;2.80;99.90;;;;;;5035740;28;20473;-64
2022/01/08 06:34:16;;;;;;;26.57;13.57;;;2.70;99.90;;;;;;5035523;28;20947;-64
2022/01/08 06:36:42;;;;;;;21.03;13.83;;;2.70;99.90;;;;;;5035909;28;20831;-64
2022/01/08 06:39:09;;;;;;;19.60;12.37;;;2.60;99.90;;;;;;5035856;28;20442;-64
2022/01/08 06:41:36;;;;;;;25.30;13.53;;;2.60;99.90;;;;;;5035775;28;21007;-64
2022/01/08 06:44:03;;;;;;;22.33;13.97;;;2.70;99.90;;;;;;5035653;28;20454;-64
2022/01/08 06:46:30;;;;;;;20.87;12.60;;;2.70;99.90;;;;;;5035195;28;20453;-65
2022/01/08 06:48:56;;;;;;;19.00;13.33;;;2.70;99.90;;;;;;5034954;28;20473;-65
2022/01/08 06:51:25;;;;;;;20.73;12.70;;;2.70;99.90;;;;;;5036455;28;20451;-65
2022/01/08 06:53:51;;;;;;;21.00;13.07;;;2.70;99.90;;;;;;5035079;28;20783;-65
2022/01/08 06:56:19;;;;;;;21.63;13.77;;;2.70;99.90;;;;;;5035450;28;20442;-64
2022/01/08 06:58:46;;;;;;;21.27;13.50;;;2.70;99.90;;;;;;5035240;28;20450;-65
2022/01/08 07:01:12;;;;;;;21.80;13.13;;;2.70;99.90;;;;;;5035192;28;20447;-65
2022/01/08 07:03:39;;;;;;;18.93;12.70;;;2.80;99.90;;;;;;5035072;28;20545;-65
2022/01/08 07:06:06;;;;;;;18.37;12.43;;;2.70;99.90;;;;;;5035169;28;20454;-65
2022/01/08 07:08:34;;;;;;;21.67;11.87;;;2.70;99.90;;;;;;5035380;28;20475;-65
2022/01/08 07:11:01;;;;;;;21.07;11.43;;;2.70;99.90;;;;;;5035125;28;20454;-64
2022/01/08 07:13:27;;;;;;;22.33;13.60;;;2.80;99.90;;;;;;5034984;28;20489;-64
2022/01/08 07:15:54;;;;;;;23.33;13.00;;;2.80;99.90;;;;;;5035255;28;20430;-65
2022/01/08 07:18:21;;;;;;;18.73;11.57;;;2.80;99.90;;;;;;5035528;28;20427;-64
2022/01/08 07:20:48;;;;;;;23.60;13.20;;;2.80;99.90;;;;;;5034928;28;20450;-64
2022/01/08 07:23:14;;;;;;;18.90;12.27;;;2.80;99.90;;;;;;5034491;28;20474;-64
2022/01/08 07:25:42;;;;;;;21.83;12.27;;;2.80;99.90;;;;;;5034802;28;20473;-64
2022/01/08 07:28:09;;;;;;;24.23;12.77;;;2.90;99.90;;;;;;5034661;28;20490;-64
2022/01/08 07:30:36;;;;;;;19.87;13.43;;;2.90;99.90;;;;;;5034468;28;20817;-65
2022/01/08 07:33:03;;;;;;;24.60;13.50;;;2.90;99.90;;;;;;5034876;28;20496;-65
2022/01/08 07:35:30;;;;;;;25.03;14.17;;;2.90;99.90;;;;;;5034658;28;20435;-64
2022/01/08 07:37:56;;;;;;;21.17;12.33;;;2.90;99.90;;;;;;5034606;28;20817;-65
2022/01/08 07:40:23;;;;;;;26.33;14.70;;;2.90;99.90;;;;;;5034546;28;20435;-64
2022/01/08 07:42:52;;;;;;;21.80;13.97;;;2.90;99.90;;;;;;5034198;28;20855;-64
2022/01/08 07:45:20;;;;;;;21.00;14.20;;;2.90;99.90;;;;;;5033954;28;20439;-64
2022/01/08 07:47:47;;;;;;;27.90;14.40;;;3.00;99.90;;;;;;5033928;28;21030;-64
2022/01/08 07:50:15;;;;;;;19.07;13.17;;;3.00;99.90;;;;;;5033908;28;20525;-64
2022/01/08 07:52:42;;;;;;;26.00;15.40;;;3.00;99.90;;;;;;5034009;28;20999;-64
2022/01/08 07:55:10;;;;;;;25.23;13.53;;;3.00;99.90;;;;;;5034336;28;20898;-65
2022/01/08 07:57:37;;;;;;;24.53;14.70;;;3.00;99.90;;;;;;5034391;28;20438;-64
2022/01/08 08:00:08;;;;;;;32.33;14.80;;;3.00;99.90;;;;;;5033694;28;20453;-64
2022/01/08 08:02:34;;;;;;;28.53;14.33;;;3.10;99.90;;;;;;5034936;28;20466;-64
2022/01/08 08:05:01;;;;;;;19.63;14.10;;;3.10;99.90;;;;;;5034077;28;20794;-64
2022/01/08 08:07:29;;;;;;;25.90;14.20;;;3.20;99.90;;;;;;5033942;28;20565;-64
2022/01/08 08:09:56;;;;;;;33.27;14.23;;;3.20;99.90;;;;;;5033803;28;20430;-65
2022/01/08 08:12:24;;;;;;;22.50;13.67;;;3.30;99.90;;;;;;5033887;28;20470;-65
2022/01/08 08:14:51;;;;;;;24.53;14.00;;;3.40;99.90;;;;;;5034029;28;20885;-64
2022/01/08 08:17:19;;;;;;;27.70;14.93;;;3.50;99.90;;;;;;5033918;28;20446;-64
2022/01/08 08:19:46;;;;;;;25.30;14.37;;;3.50;99.90;;;;;;5033697;28;20458;-64
2022/01/08 08:22:13;;;;;;;26.43;15.70;;;3.50;99.90;;;;;;5033573;28;20489;-65
2022/01/08 08:24:39;;;;;;;25.37;14.87;;;3.60;99.90;;;;;;5033812;28;20442;-65
2022/01/08 08:27:06;;;;;;;26.20;14.13;;;3.60;99.90;;;;;;5033694;28;20473;-64
2022/01/08 08:29:33;;;;;;;25.47;14.40;;;3.60;99.90;;;;;;5033660;28;20482;-64
2022/01/08 08:32:00;;;;;;;30.87;16.77;;;3.70;99.90;;;;;;5034254;28;20471;-64
2022/01/08 08:34:28;;;;;;;30.00;16.83;;;3.70;99.90;;;;;;5033493;28;20442;-65
2022/01/08 08:36:55;;;;;;;31.67;15.43;;;3.80;99.90;;;;;;5033427;28;20446;-64
2022/01/08 08:39:21;;;;;;;21.10;13.70;;;3.80;99.90;;;;;;5033850;28;20443;-65
2022/01/08 08:41:48;;;;;;;26.43;15.67;;;3.90;99.90;;;;;;5033802;28;20463;-65
2022/01/08 08:44:15;;;;;;;31.27;15.47;;;4.00;99.90;;;;;;5033872;28;20451;-65
2022/01/08 08:46:42;;;;;;;28.07;16.17;;;4.10;99.90;;;;;;5033765;28;20439;-64
2022/01/08 08:49:08;;;;;;;31.83;16.20;;;4.10;99.90;;;;;;5033819;28;20467;-64
2022/01/08 08:51:37;;;;;;;25.33;15.17;;;4.10;99.90;;;;;;5033519;28;20825;-65
2022/01/08 08:54:03;;;;;;;26.33;16.57;;;4.20;99.90;;;;;;5033157;28;20932;-65
2022/01/08 08:56:30;;;;;;;26.63;15.03;;;4.20;99.90;;;;;;5033329;28;20431;-65
2022/01/08 08:58:57;;;;;;;30.33;15.40;;;4.30;99.90;;;;;;5033376;28;20446;-65
2022/01/08 09:01:25;;;;;;;26.90;12.90;;;4.40;99.90;;;;;;5033329;28;20442;-66
2022/01/08 09:03:52;;;;;;;21.80;14.90;;;4.40;99.90;;;;;;5033107;28;20474;-65
2022/01/08 09:06:19;;;;;;;24.10;13.70;;;4.50;99.90;;;;;;5032843;28;20446;-66
2022/01/08 09:08:47;;;;;;;26.87;14.57;;;4.60;99.90;;;;;;5032894;28;20528;-64
2022/01/08 09:11:14;;;;;;;22.83;14.60;;;4.60;99.90;;;;;;5034827;28;20446;-64
2022/01/08 09:13:40;;;;;;;29.33;15.17;;;4.60;99.90;;;;;;5037216;28;20438;-64
2022/01/08 09:16:07;;;;;;;28.03;14.63;;;4.70;99.90;;;;;;5037243;28;20450;-65
2022/01/08 09:18:34;;;;;;;23.13;12.97;;;4.70;99.90;;;;;;5037079;28;20433;-65
2022/01/08 09:21:01;;;;;;;28.13;15.53;;;4.70;99.90;;;;;;5036703;28;20446;-65
2022/01/08 09:23:28;;;;;;;26.17;14.47;;;4.80;99.90;;;;;;5036948;28;20493;-66
2022/01/08 09:25:56;;;;;;;24.33;15.20;;;4.90;99.90;;;;;;5036862;28;20486;-67
2022/01/08 09:28:22;;;;;;;20.33;13.60;;;5.00;99.90;;;;;;5036845;28;20462;-66
2022/01/08 09:30:49;;;;;;;28.43;16.50;;;5.00;99.90;;;;;;5036660;28;20955;-67
2022/01/08 09:33:16;;;;;;;32.47;15.07;;;5.00;99.90;;;;;;5036828;28;20473;-67
2022/01/08 09:35:43;;;;;;;28.23;15.60;;;5.10;99.90;;;;;;5036888;28;20454;-66
2022/01/08 09:38:10;;;;;;;22.27;13.53;;;5.10;99.90;;;;;;5036774;28;20851;-67
2022/01/08 09:40:37;;;;;;;24.00;14.93;;;5.20;99.90;;;;;;5036491;28;20933;-66
2022/01/08 09:43:05;;;;;;;30.57;16.17;;;5.20;99.90;;;;;;5036680;28;20493;-66
2022/01/08 09:45:32;;;;;;;29.60;15.20;;;5.30;99.90;;;;;;5036950;28;20517;-66
2022/01/08 09:47:59;;;;;;;26.33;15.47;;;5.30;99.90;;;;;;5036597;28;20491;-66
2022/01/08 09:50:26;;;;;;;25.67;15.50;;;5.30;99.90;;;;;;5036550;28;20450;-65
2022/01/08 09:52:53;;;;;;;28.10;15.70;;;5.30;99.90;;;;;;5036586;28;20502;-65
2022/01/08 09:55:21;;;;;;;25.60;13.37;;;5.30;99.90;;;;;;5036604;28;20537;-65
2022/01/08 09:57:47;;;;;;;19.63;13.47;;;5.30;99.90;;;;;;5036497;28;20469;-65
2022/01/08 10:00:17;;;;;;;25.73;13.40;;;5.30;99.90;;;;;;5036700;28;20442;-65
2022/01/08 10:02:45;;;;;;;19.70;13.50;;;5.20;99.90;;;;;;5036442;28;20466;-65
2022/01/08 10:05:14;;;;;;;23.73;12.00;;;5.20;99.90;;;;;;5036249;28;20500;-65
2022/01/08 10:07:41;;;;;;;21.20;12.00;;;5.20;99.90;;;;;;5036366;28;20492;-65
2022/01/08 10:10:13;;;;;;;19.23;12.20;;;5.20;99.90;;;;;;5036410;28;20500;-65
2022/01/08 10:12:48;;;;;;;18.77;11.43;;;5.20;99.90;;;;;;5036314;28;20892;-65
2022/01/08 10:18:08;;;;;;;16.10;10.43;;;5.30;99.90;;;;;;5036243;28;20458;-65
2022/01/08 10:20:37;;;;;;;14.87;8.70;;;5.30;99.90;;;;;;5036094;28;20443;-65
2022/01/08 10:23:15;;;;;;;15.10;11.40;;;5.40;99.90;;;;;;5034772;28;21007;-65
2022/01/08 10:25:54;;;;;;;13.00;9.13;;;5.50;99.90;;;;;;5035975;28;20521;-65
2022/01/08 10:28:33;;;;;;;16.80;10.30;;;5.50;99.90;;;;;;5036002;28;20502;-66
2022/01/08 10:31:09;;;;;;;18.33;9.23;;;5.50;99.90;;;;;;5036039;28;20427;-66
2022/01/08 10:33:36;;;;;;;11.50;7.13;;;5.50;99.90;;;;;;5035636;28;20455;-65
2022/01/08 10:36:03;;;;;;;11.30;9.03;;;5.50;99.90;;;;;;5035492;28;20454;-65
2022/01/08 10:38:30;;;;;;;14.13;9.13;;;5.50;99.90;;;;;;5035825;28;20439;-65
2022/01/08 10:40:58;;;;;;;13.47;9.43;;;5.50;99.90;;;;;;5035709;28;20426;-65
2022/01/08 10:43:27;;;;;;;13.47;10.30;;;5.60;99.90;;;;;;5035638;28;20553;-65
2022/01/08 10:45:55;;;;;;;12.07;8.40;;;5.70;99.90;;;;;;5035298;28;20442;-65
2022/01/08 10:48:29;;;;;;;11.40;8.10;;;5.80;99.90;;;;;;5035464;28;20478;-65
2022/01/08 10:51:09;;;;;;;11.83;7.70;;;5.90;99.90;;;;;;5035601;28;20430;-65
2022/01/08 10:53:55;;;;;;;14.80;7.23;;;6.00;99.90;;;;;;5035455;28;20490;-66
2022/01/08 10:56:25;;;;;;;12.20;7.50;;;6.10;99.90;;;;;;5035482;28;20458;-66
2022/01/08 10:58:55;;;;;;;10.90;6.70;;;6.30;99.90;;;;;;5035583;28;20442;-65
2022/01/08 11:01:43;;;;;;;10.20;6.47;;;6.40;99.90;;;;;;5034935;28;20434;-66
2022/01/08 11:04:14;;;;;;;8.23;6.10;;;6.50;99.90;;;;;;5035535;28;20442;-65
2022/01/08 11:06:51;;;;;;;15.13;7.50;;;6.50;99.80;;;;;;5035263;28;20443;-65
2022/01/08 11:09:18;;;;;;;8.57;6.43;;;6.60;99.50;;;;;;5035062;28;20466;-67
2022/01/08 11:11:45;;;;;;;11.13;6.80;;;6.60;99.20;;;;;;5034896;28;20470;-66
2022/01/08 11:14:23;;;;;;;10.67;6.13;;;6.70;99.40;;;;;;5035324;28;20431;-78
2022/01/08 11:16:51;;;;;;;10.50;6.70;;;6.70;98.90;;;;;;5035456;28;20435;-76
2022/01/08 11:19:20;;;;;;;8.20;4.80;;;6.80;98.70;;;;;;5034919;28;20509;-75
2022/01/08 11:21:49;;;;;;;8.30;5.80;;;6.90;97.90;;;;;;5034964;28;20475;-68
2022/01/08 11:24:18;;;;;;;5.57;4.70;;;7.00;97.70;;;;;;5034570;28;20462;-67
2022/01/08 11:26:47;;;;;;;5.07;4.30;;;7.00;97.50;;;;;;5034731;28;20450;-67
2022/01/08 11:29:16;;;;;;;7.73;5.20;;;7.10;97.40;;;;;;5034663;28;20478;-67
2022/01/08 11:31:44;;;;;;;8.50;4.20;;;7.10;97.30;;;;;;5034679;28;20462;-68
2022/01/08 11:34:12;;;;;;;7.40;4.80;;;7.20;97.10;;;;;;5035345;28;20427;-68
2022/01/08 11:36:43;;;;;;;7.63;4.60;;;7.30;96.70;;;;;;5034594;28;20508;-68
2022/01/08 11:39:10;;;;;;;7.57;3.27;;;7.40;96.70;;;;;;5034345;28;20967;-68
2022/01/08 11:41:37;;;;;;;7.37;3.60;;;7.40;96.00;;;;;;5034434;28;20496;-68
2022/01/08 11:44:04;;;;;;;8.73;4.37;;;7.30;95.50;;;;;;5034499;28;20450;-68
2022/01/08 11:46:34;;;;;;;5.97;3.70;;;7.30;95.60;;;;;;5034416;28;20458;-68
2022/01/08 11:49:02;;;;;;;8.10;3.13;;;7.30;95.60;;;;;;5035567;28;20505;-72
2022/01/08 11:51:31;;;;;;;6.60;3.43;;;7.30;95.40;;;;;;5036133;28;20913;-73
2022/01/08 11:54:02;;;;;;;6.27;3.63;;;7.40;94.70;;;;;;5036166;28;20506;-67
2022/01/08 11:56:32;;;;;;;5.27;4.70;;;7.40;94.80;;;;;;5034409;28;20427;-67
2022/01/08 11:59:04;;;;;;;4.00;2.13;;;7.50;94.90;;;;;;5034102;28;20442;-67
2022/01/08 12:01:31;;;;;;;4.60;2.13;;;7.50;93.60;;;;;;5033746;28;20430;-67
2022/01/08 12:03:58;;;;;;;9.40;2.93;;;7.50;93.20;;;;;;5033754;28;20979;-67
2022/01/08 12:06:34;;;;;;;6.33;2.93;;;7.50;93.60;;;;;;5034106;28;20438;-67
2022/01/08 12:09:19;;;;;;;4.10;1.83;;;7.50;93.00;;;;;;5033989;28;20506;-66
2022/01/08 12:11:55;;;;;;;6.27;2.30;;;7.50;92.60;;;;;;5033879;28;20470;-67
2022/01/08 12:14:24;;;;;;;3.47;1.60;;;7.50;92.90;;;;;;5034356;28;20453;-67
2022/01/08 12:16:51;;;;;;;4.93;2.13;;;7.60;92.30;;;;;;5033792;28;20450;-67
2022/01/08 12:19:33;;;;;;;4.27;2.20;;;7.60;92.20;;;;;;5033700;28;20459;-67
2022/01/08 12:22:01;;;;;;;6.23;2.70;;;7.60;92.60;;;;;;5033791;28;20474;-68
2022/01/08 12:24:36;;;;;;;4.43;3.00;;;7.40;92.50;;;;;;5033692;28;20477;-67
2022/01/08 12:27:20;;;;;;;6.60;3.50;;;7.40;93.20;;;;;;5033439;28;20924;-68
2022/01/08 12:29:46;;;;;;;4.83;3.07;;;7.30;93.60;;;;;;5033394;28;20462;-67
2022/01/08 12:32:34;;;;;;;8.93;3.60;;;7.30;93.80;;;;;;5033428;28;20469;-67
2022/01/08 12:35:22;;;;;;;4.57;2.60;;;7.20;93.90;;;;;;5033537;28;20799;-67
2022/01/08 12:37:51;;;;;;;5.13;2.60;;;7.20;93.90;;;;;;5033463;28;20431;-67
2022/01/08 12:40:35;;;;;;;4.27;3.07;;;7.20;94.10;;;;;;5033488;28;20450;-67
2022/01/08 12:43:18;;;;;;;2.77;2.53;;;7.20;93.30;;;;;;5033599;28;20466;-67
2022/01/08 12:45:47;;;;;;;5.37;2.70;;;7.20;93.90;;;;;;5033030;28;20431;-67
2022/01/08 12:48:14;;;;;;;5.23;2.73;;;7.20;94.30;;;;;;5033473;28;20866;-67
2022/01/08 12:50:53;;;;;;;8.63;2.77;;;7.20;93.90;;;;;;5033317;28;20485;-67
2022/01/08 12:53:25;;;;;;;2.63;2.43;;;7.10;93.20;;;;;;5033609;28;20470;-67
2022/01/08 12:56:13;;;;;;;10.33;3.00;;;6.90;93.40;;;;;;5033568;28;20435;-67
2022/01/08 12:58:51;;;;;;;4.20;2.93;;;6.90;93.70;;;;;;5033358;28;20450;-67
2022/01/08 13:01:26;;;;;;;6.03;3.77;;;6.80;93.90;;;;;;5032935;28;20933;-67
2022/01/08 13:03:55;;;;;;;5.40;3.03;;;6.80;94.00;;;;;;5033605;28;20791;-67
2022/01/08 13:06:28;;;;;;;4.93;3.40;;;6.80;94.50;;;;;;5033380;28;20449;-67
2022/01/08 13:08:55;;;;;;;8.03;3.00;;;6.80;94.60;;;;;;5033199;28;20434;-67
2022/01/08 13:11:26;;;;;;;3.67;2.60;;;6.70;94.40;;;;;;5033169;28;20501;-69